Airfield :
LOGIN :

Register | Disclaimer

   EN    FR    IT 

 










Legend :    VFR   Marginal VFR   IFR   Intensive IFR   Very Intensive IFR
Visi :
Ceiling :
>= 8 km
>= 3000ft
5 to 8 km
1000 to 3000 ft
1500m to 5 km
500 to 1000 ft
800 to 1500m
200 to 500 ft
< 800m
< 200 ft
Symbols :   Thunderstorms  Fog  Heavy snow  Heavy precipitations  Wind > 20 kt
SIGMETs :     Misc.  Thunderstorms  Icing  Turbulence  Mountain Waves  Volcanic Ashes







- Airport Elevation : 266 ft
- IATA code : NCL
- Download approach charts


EGNT - Newcastle

CURRENT METAR :
  • 202350Z 15005KT 090V180 CAVOK 13/12 Q1020

EXPIRED METARs :
  • 202320Z 16004KT 110V200 CAVOK 13/12 Q1020
  • 202250Z 16004KT 130V190 CAVOK 13/12 Q1020
  • 202220Z 15004KT 110V180 CAVOK 13/12 Q1020
  • 202150Z VRB03KT CAVOK 13/12 Q1021

TAF TAF EGNT
Valid from the 21 at 00:00 until the 22 at 00:00 UTC


202257Z 2100/2124 13009KT CAVOK
PROB40 2103/2108 7000
ATIS : +44 191 214 3400
No reported NOTAMs for that airfield.



MET'MAP, your aeronautical weather chart ! - Copyright ORBIFLY December 2007 - Disclaimer

ORBIFLY MET'MAP TEAM :

Programming & Development : Alexandra Zaïnal
Concept & Development : Baudouin d'Aumeries
Co-Development & Prog : Marc-Olivier Méhu
Technical & hardware support : Manuel Goepfert

Contact : metmap@orbifly.com




SOURCES & CREDITS :

   NOAA